Time;durP1;ratioP1;P1;durP2;ratioP2;P2;SDS_P1;SDS_P2;PMS_P1;PMS_P2;Temp;Humidity;BMP_temperature;BMP_pressure;BME280_temperature;BME280_humidity;BME280_pressure;Samples;Min_cycle;Max_cycle;Signal;HPM_P1;HPM_P2
2021/11/25 00:00:20;;;;;;;43.67;21.30;;;;;4.00;100882.00;;;;10475893;28;20216;-79
2021/11/25 00:05:22;;;;;;;43.20;23.70;;;;;4.00;100872.00;;;;10502045;28;20215;-79
2021/11/25 00:10:24;;;;;;;44.40;21.90;;;;;3.90;100874.00;;;;10495581;28;20211;-79
2021/11/25 00:15:26;;;;;;;42.53;22.20;;;;;3.90;100869.00;;;;10467811;27;20207;-79
2021/11/25 00:20:29;;;;;;;43.33;22.83;;;;;3.90;100873.00;;;;10498250;28;20710;-79
2021/11/25 00:25:31;;;;;;;48.77;24.07;;;;;3.90;100880.00;;;;10507557;28;20249;-79
2021/11/25 00:30:33;;;;;;;49.57;23.77;;;;;3.90;100869.00;;;;10485649;28;20227;-79
2021/11/25 00:35:35;;;;;;;43.53;22.67;;;;;3.90;100855.00;;;;10520198;28;20197;-79
2021/11/25 00:40:37;;;;;;;40.87;21.63;;;;;3.90;100843.00;;;;10502469;28;20255;-79
2021/11/25 00:45:39;;;;;;;45.27;23.80;;;;;3.90;100848.00;;;;10461649;28;20237;-79
2021/11/25 00:50:41;;;;;;;48.13;21.73;;;;;3.80;100837.00;;;;10473943;28;20203;-79
2021/11/25 00:55:44;;;;;;;37.97;22.43;;;;;3.80;100860.00;;;;10499131;28;20690;-79
2021/11/25 01:00:47;;;;;;;44.37;22.87;;;;;3.80;100860.00;;;;10467983;28;20699;-79
2021/11/25 01:05:49;;;;;;;45.57;23.13;;;;;3.90;100848.00;;;;10469109;28;20197;-79
2021/11/25 01:10:52;;;;;;;43.53;22.67;;;;;3.80;100854.00;;;;10453812;28;20201;-79
2021/11/25 01:15:54;;;;;;;39.43;21.63;;;;;3.80;100845.00;;;;10482611;28;20219;-79
2021/11/25 01:20:56;;;;;;;41.43;22.97;;;;;3.80;100846.00;;;;10483234;28;20695;-79
2021/11/25 01:25:58;;;;;;;43.73;22.73;;;;;3.80;100836.00;;;;10513083;28;20223;-79
2021/11/25 01:31:01;;;;;;;52.53;24.73;;;;;3.70;100827.00;;;;10491184;28;20216;-79
2021/11/25 01:36:03;;;;;;;42.83;23.47;;;;;3.70;100817.00;;;;10507995;28;20338;-79
2021/11/25 01:41:06;;;;;;;39.67;23.60;;;;;3.60;100815.00;;;;10485223;28;20267;-79
2021/11/25 01:46:13;;;;;;;41.97;22.93;;;;;3.60;100817.00;;;;10454695;28;20216;-79
2021/11/25 01:51:17;;;;;;;46.03;23.97;;;;;3.50;100818.00;;;;10489994;28;20219;-79
2021/11/25 01:56:19;;;;;;;44.73;25.53;;;;;3.50;100815.00;;;;10540164;28;20204;-79
2021/11/25 02:01:22;;;;;;;38.67;21.87;;;;;3.50;100807.00;;;;10498710;28;20221;-79
2021/11/25 02:06:25;;;;;;;43.27;23.23;;;;;3.50;100801.00;;;;10489516;28;20666;-79
2021/11/25 02:11:28;;;;;;;48.70;24.97;;;;;3.60;100807.00;;;;10521974;28;20208;-79
2021/11/25 02:16:30;;;;;;;48.30;24.70;;;;;3.50;100792.00;;;;10493577;28;20250;-79
2021/11/25 02:21:32;;;;;;;49.57;25.00;;;;;3.50;100793.00;;;;10489593;27;20209;-79
2021/11/25 02:26:35;;;;;;;39.70;22.17;;;;;3.40;100770.00;;;;10488692;28;20312;-79
2021/11/25 02:31:37;;;;;;;41.20;22.40;;;;;3.30;100776.00;;;;10480903;28;20224;-79
2021/11/25 02:36:39;;;;;;;49.23;22.03;;;;;3.30;100776.00;;;;10473649;28;20208;-79
2021/11/25 02:41:41;;;;;;;48.43;24.10;;;;;3.40;100765.00;;;;10479120;28;20213;-79
2021/11/25 02:46:49;;;;;;;48.93;24.30;;;;;3.40;100764.00;;;;10497281;28;20212;-79
2021/11/25 02:51:51;;;;;;;56.40;26.67;;;;;3.40;100759.00;;;;10488231;28;20299;-79
2021/11/25 02:56:55;;;;;;;45.53;26.00;;;;;3.50;100749.00;;;;10488241;28;20238;-79
2021/11/25 03:01:57;;;;;;;45.77;24.50;;;;;3.50;100752.00;;;;10471965;28;20273;-79
2021/11/25 03:06:59;;;;;;;48.67;25.27;;;;;3.50;100763.00;;;;10504632;28;20200;-79
2021/11/25 03:12:01;;;;;;;45.83;24.53;;;;;3.50;100761.00;;;;10503741;28;20204;-79
2021/11/25 03:17:03;;;;;;;47.90;25.13;;;;;3.50;100744.00;;;;10519605;28;20201;-79
2021/11/25 03:22:06;;;;;;;49.53;26.20;;;;;3.60;100759.00;;;;10503593;28;20203;-79
2021/11/25 03:27:09;;;;;;;51.67;26.97;;;;;3.60;100751.00;;;;10503934;28;20204;-79
2021/11/25 03:32:11;;;;;;;53.80;24.93;;;;;3.70;100744.00;;;;10486830;28;20266;-79
2021/11/25 03:37:14;;;;;;;50.53;27.83;;;;;3.70;100752.00;;;;10487493;28;20205;-79
2021/11/25 03:42:16;;;;;;;51.17;27.77;;;;;3.80;100755.00;;;;10483418;28;20254;-79
2021/11/25 03:47:17;;;;;;;47.63;26.03;;;;;3.80;100756.00;;;;10501454;28;20193;-79
2021/11/25 03:52:19;;;;;;;55.60;27.50;;;;;3.80;100743.00;;;;10462378;28;20208;-79
2021/11/25 03:57:22;;;;;;;57.20;29.30;;;;;3.80;100743.00;;;;10491328;28;20200;-79
2021/11/25 04:02:25;;;;;;;51.20;26.90;;;;;3.90;100748.00;;;;10474041;28;20202;-79
2021/11/25 04:07:27;;;;;;;47.10;24.80;;;;;3.90;100728.00;;;;10460162;28;20201;-78
2021/11/25 04:12:30;;;;;;;42.83;24.60;;;;;3.90;100718.00;;;;10505237;28;20196;-79
2021/11/25 04:17:32;;;;;;;46.10;25.37;;;;;3.90;100725.00;;;;10502006;28;20212;-79
2021/11/25 04:22:34;;;;;;;50.73;23.90;;;;;3.90;100722.00;;;;10476324;28;20205;-79
2021/11/25 04:27:37;;;;;;;42.57;23.73;;;;;3.90;100725.00;;;;10465364;28;20201;-79
2021/11/25 04:38:21;;;;;;;46.37;27.17;;;;;3.90;100738.00;;;;10517857;28;20216;-79
2021/11/25 04:43:24;;;;;;;51.63;27.33;;;;;3.80;100726.00;;;;10501948;28;20224;-79
2021/11/25 04:48:27;;;;;;;49.90;25.63;;;;;3.80;100734.00;;;;10460004;28;20206;-79
2021/11/25 04:53:30;;;;;;;51.07;25.20;;;;;3.80;100747.00;;;;10503973;28;20885;-79
2021/11/25 04:58:32;;;;;;;55.70;28.67;;;;;3.80;100737.00;;;;10480481;28;20282;-78
2021/11/25 05:03:34;;;;;;;51.60;27.27;;;;;3.90;100732.00;;;;10492752;28;20196;-78
2021/11/25 05:08:42;;;;;;;61.30;30.30;;;;;3.90;100747.00;;;;10492587;28;20201;-78
2021/11/25 05:13:44;;;;;;;61.67;30.17;;;;;4.00;100732.00;;;;10467484;28;20255;-79
2021/11/25 05:18:46;;;;;;;62.80;29.50;;;;;4.10;100740.00;;;;10491235;28;20270;-79
2021/11/25 05:23:48;;;;;;;57.43;29.93;;;;;4.10;100740.00;;;;10464617;28;20615;-79
2021/11/25 05:28:51;;;;;;;60.50;29.67;;;;;4.10;100735.00;;;;10462191;28;20201;-79
2021/11/25 05:33:54;;;;;;;58.80;30.13;;;;;4.10;100734.00;;;;10505026;28;20400;-79
2021/11/25 05:38:56;;;;;;;59.97;28.53;;;;;4.10;100740.00;;;;10505513;28;20267;-79
2021/11/25 05:43:58;;;;;;;55.13;28.10;;;;;4.20;100732.00;;;;10484492;28;20255;-79
2021/11/25 05:49:00;;;;;;;49.40;25.57;;;;;4.20;100723.00;;;;10494177;28;20201;-79
2021/11/25 05:54:02;;;;;;;50.27;26.53;;;;;4.20;100720.00;;;;10474438;28;20212;-78
2021/11/25 05:59:04;;;;;;;54.03;27.63;;;;;4.20;100729.00;;;;10474973;28;20221;-79
2021/11/25 06:04:06;;;;;;;50.33;27.00;;;;;4.20;100727.00;;;;10464880;28;20201;-79
2021/11/25 06:09:08;;;;;;;49.10;26.97;;;;;4.20;100721.00;;;;10503105;28;20296;-78
2021/11/25 06:14:10;;;;;;;55.10;28.67;;;;;4.20;100709.00;;;;10524293;28;20197;-79
2021/11/25 06:19:12;;;;;;;55.40;28.37;;;;;4.30;100713.00;;;;10507425;28;20266;-79
2021/11/25 06:24:14;;;;;;;67.20;30.70;;;;;4.40;100708.00;;;;10507418;28;20201;-79
2021/11/25 06:29:17;;;;;;;80.90;35.47;;;;;4.50;100713.00;;;;10492746;28;20213;-79
2021/11/25 06:34:19;;;;;;;74.43;35.90;;;;;4.50;100699.00;;;;10460609;28;20263;-79
2021/11/25 06:39:21;;;;;;;79.97;32.53;;;;;4.60;100694.00;;;;10482627;28;20212;-79
2021/11/25 06:44:22;;;;;;;77.90;36.17;;;;;4.70;100698.00;;;;10485748;28;20197;-79
2021/11/25 06:49:24;;;;;;;76.20;35.13;;;;;4.70;100707.00;;;;10468011;28;20216;-80
2021/11/25 06:54:26;;;;;;;79.00;36.30;;;;;4.70;100709.00;;;;10489614;28;20208;-80
2021/11/25 06:59:28;;;;;;;69.97;33.63;;;;;4.70;100712.00;;;;10473252;28;20271;-80
2021/11/25 07:04:30;;;;;;;67.43;32.10;;;;;4.70;100725.00;;;;10512079;28;20257;-80
2021/11/25 07:09:32;;;;;;;71.40;34.67;;;;;4.80;100728.00;;;;10491853;28;20255;-80
2021/11/25 07:14:34;;;;;;;70.07;34.87;;;;;4.80;100718.00;;;;10488698;28;20200;-80
2021/11/25 07:19:37;;;;;;;66.03;32.50;;;;;4.80;100723.00;;;;10471732;28;20238;-81
2021/11/25 07:24:39;;;;;;;80.83;35.20;;;;;4.90;100714.00;;;;10526307;28;20556;-81
2021/11/25 07:29:41;;;;;;;97.37;40.23;;;;;4.90;100715.00;;;;10488745;28;20200;-81
2021/11/25 07:34:43;;;;;;;82.13;38.10;;;;;5.00;100712.00;;;;10484512;28;20221;-81
2021/11/25 07:39:45;;;;;;;79.60;37.83;;;;;5.00;100713.00;;;;10466769;28;20298;-81
2021/11/25 07:44:47;;;;;;;88.53;38.67;;;;;5.10;100721.00;;;;10447668;28;20209;-80
2021/11/25 07:49:48;;;;;;;87.93;39.17;;;;;5.20;100719.00;;;;10509152;28;20736;-80
2021/11/25 07:54:50;;;;;;;85.80;37.93;;;;;5.20;100712.00;;;;10490043;28;20246;-80
2021/11/25 07:59:53;;;;;;;101.20;39.73;;;;;5.20;100717.00;;;;10539889;28;20289;-80
2021/11/25 08:04:55;;;;;;;84.20;39.00;;;;;5.20;100719.00;;;;10452703;28;20213;-80
2021/11/25 08:09:57;;;;;;;94.47;41.57;;;;;5.30;100726.00;;;;10475730;28;20229;-80
2021/11/25 08:15:02;;;;;;;90.00;40.33;;;;;5.40;100720.00;;;;10497561;28;20230;-80
2021/11/25 08:20:06;;;;;;;90.83;40.50;;;;;5.50;100720.00;;;;10498267;28;20229;-80
2021/11/25 08:25:09;;;;;;;92.40;40.37;;;;;5.60;100721.00;;;;10456932;28;20284;-80
2021/11/25 08:30:14;;;;;;;85.67;43.17;;;;;5.70;100713.00;;;;10477243;28;20206;-80
2021/11/25 08:35:18;;;;;;;97.27;42.23;;;;;5.80;100698.00;;;;10462008;28;20197;-80
2021/11/25 08:40:20;;;;;;;91.97;40.60;;;;;5.90;100708.00;;;;10469384;28;20218;-80
2021/11/25 08:45:23;;;;;;;93.97;40.27;;;;;6.00;100714.00;;;;10497822;28;20913;-80
2021/11/25 08:50:27;;;;;;;87.57;41.87;;;;;6.00;100718.00;;;;10486324;28;20209;-80
2021/11/25 08:55:34;;;;;;;89.10;41.00;;;;;6.00;100722.00;;;;10445251;28;20197;-80
2021/11/25 09:00:36;;;;;;;109.37;46.37;;;;;6.10;100730.00;;;;10540282;28;20347;-80
2021/11/25 09:05:39;;;;;;;117.93;52.50;;;;;6.20;100725.00;;;;10486195;28;20220;-80
2021/11/25 09:10:41;;;;;;;113.10;48.87;;;;;6.30;100722.00;;;;10494927;28;20250;-80
2021/11/25 09:15:43;;;;;;;108.50;48.17;;;;;6.40;100728.00;;;;10504436;28;20201;-80
2021/11/25 09:20:45;;;;;;;101.10;48.40;;;;;6.70;100729.00;;;;10470057;28;20229;-80
2021/11/25 09:25:48;;;;;;;102.13;47.13;;;;;7.10;100753.00;;;;10463942;28;20205;-80
2021/11/25 09:30:51;;;;;;;99.47;46.23;;;;;7.20;100758.00;;;;10501855;28;20270;-80
2021/11/25 09:35:53;;;;;;;91.57;42.60;;;;;7.30;100751.00;;;;10470439;28;20224;-80
2021/11/25 09:40:55;;;;;;;75.70;40.77;;;;;7.50;100745.00;;;;10450145;28;20232;-80
2021/11/25 09:45:57;;;;;;;85.50;44.33;;;;;7.80;100762.00;;;;10510707;28;20197;-80
2021/11/25 09:50:59;;;;;;;83.17;42.37;;;;;7.70;100766.00;;;;10483306;28;20204;-80
2021/11/25 09:56:02;;;;;;;73.90;39.10;;;;;7.50;100770.00;;;;10476185;28;20261;-80
2021/11/25 10:01:11;;;;;;;75.73;40.13;;;;;7.40;100764.00;;;;10492039;28;20625;-80
2021/11/25 10:06:13;;;;;;;85.87;42.17;;;;;7.30;100761.00;;;;10485854;28;20309;-80
2021/11/25 10:11:33;;;;;;;80.13;40.23;;;;;7.50;100757.00;;;;10487032;28;20200;-80
2021/11/25 10:16:39;;;;;;;80.47;41.10;;;;;7.60;100755.00;;;;10491010;28;20238;-80
2021/11/25 10:21:48;;;;;;;91.00;40.90;;;;;7.80;100756.00;;;;10442419;28;20269;-80
2021/11/25 10:26:50;;;;;;;74.67;40.87;;;;;8.20;100751.00;;;;10483588;28;20240;-80
2021/11/25 10:31:55;;;;;;;74.63;40.00;;;;;8.00;100761.00;;;;10489227;28;20622;-80
2021/11/25 10:42:06;;;;;;;73.33;38.70;;;;;7.80;100744.00;;;;10488492;28;20221;-80
2021/11/25 10:47:18;;;;;;;78.17;40.43;;;;;7.80;100747.00;;;;10489461;28;20283;-80
2021/11/25 10:52:23;;;;;;;70.90;38.53;;;;;7.80;100745.00;;;;10494750;28;20234;-81
2021/11/25 10:57:37;;;;;;;75.23;39.33;;;;;7.80;100749.00;;;;10503454;28;20208;-80
2021/11/25 11:02:40;;;;;;;75.40;38.17;;;;;7.80;100729.00;;;;10485829;28;20217;-80
2021/11/25 11:07:45;;;;;;;72.57;37.50;;;;;7.60;100735.00;;;;10469952;28;20193;-80
2021/11/25 11:13:03;;;;;;;72.30;37.47;;;;;7.30;100725.00;;;;10462217;28;20212;-81
2021/11/25 11:23:13;;;;;;;76.67;40.17;;;;;7.30;100711.00;;;;10486551;28;20695;-82
2021/11/25 11:28:16;;;;;;;78.53;40.13;;;;;7.30;100711.00;;;;10493406;28;20200;-81
2021/11/25 11:33:19;;;;;;;79.57;38.37;;;;;7.30;100719.00;;;;10502820;28;20265;-81
2021/11/25 11:38:25;;;;;;;83.47;40.87;;;;;7.40;100705.00;;;;10482527;28;20824;-81
2021/11/25 11:43:27;;;;;;;82.80;40.00;;;;;7.40;100706.00;;;;10490041;28;20208;-81
2021/11/25 11:48:30;;;;;;;83.23;40.60;;;;;7.30;100711.00;;;;10505425;28;20201;-81
2021/11/25 11:53:43;;;;;;;86.03;41.37;;;;;7.20;100715.00;;;;10510031;28;20671;-82
2021/11/25 11:58:54;;;;;;;80.07;40.80;;;;;7.00;100706.00;;;;10439789;28;20217;-81
2021/11/25 12:04:22;;;;;;;83.87;40.30;;;;;7.00;100705.00;;;;10446235;28;20816;-81
2021/11/25 12:09:24;;;;;;;81.60;41.03;;;;;6.90;100691.00;;;;10454449;28;20580;-81
2021/11/25 12:14:31;;;;;;;87.37;41.80;;;;;6.80;100687.00;;;;10471872;28;20192;-81
2021/11/25 12:19:38;;;;;;;87.90;42.93;;;;;7.20;100688.00;;;;10454102;28;20208;-81
2021/11/25 12:25:00;;;;;;;89.50;44.17;;;;;7.60;100682.00;;;;10471538;28;20193;-81
2021/11/25 12:35:25;;;;;;;77.70;39.07;;;;;7.90;100668.00;;;;10484755;28;20278;-81
2021/11/25 12:40:27;;;;;;;73.07;39.57;;;;;8.10;100663.00;;;;10461882;28;20228;-81
2021/11/25 12:45:32;;;;;;;72.87;37.00;;;;;8.30;100667.00;;;;10463380;28;20579;-81
2021/11/25 12:50:38;;;;;;;65.67;34.83;;;;;8.40;100669.00;;;;10485436;28;20230;-81
2021/11/25 12:55:42;;;;;;;60.07;34.30;;;;;8.50;100674.00;;;;10502444;28;20652;-81
2021/11/25 13:00:45;;;;;;;63.57;33.53;;;;;8.60;100664.00;;;;10489343;28;20300;-81
2021/11/25 13:05:49;;;;;;;54.50;30.27;;;;;8.60;100660.00;;;;10480870;28;20192;-81
2021/11/25 13:10:51;;;;;;;56.97;31.00;;;;;8.70;100652.00;;;;10477154;28;20201;-81
2021/11/25 13:15:56;;;;;;;54.43;30.57;;;;;8.80;100663.00;;;;10495210;28;20200;-81
2021/11/25 13:20:58;;;;;;;54.90;32.03;;;;;8.80;100671.00;;;;10493309;28;20236;-81
2021/11/25 13:26:01;;;;;;;53.07;29.00;;;;;8.80;100661.00;;;;10495715;28;20600;-81
2021/11/25 13:31:12;;;;;;;48.63;28.17;;;;;8.80;100676.00;;;;10512254;28;20215;-80
2021/11/25 13:36:13;;;;;;;47.03;28.37;;;;;8.70;100664.00;;;;10509839;28;20201;-80
2021/11/25 13:41:17;;;;;;;47.33;26.53;;;;;8.70;100662.00;;;;10458280;28;20266;-80
2021/11/25 13:46:20;;;;;;;48.10;26.90;;;;;8.90;100667.00;;;;10484013;28;20209;-80
2021/11/25 13:51:24;;;;;;;42.40;22.43;;;;;8.90;100659.00;;;;10488530;28;20197;-80
2021/11/25 13:56:26;;;;;;;36.93;21.03;;;;;8.90;100669.00;;;;10490271;28;20197;-80
2021/11/25 14:01:29;;;;;;;40.77;21.43;;;;;8.80;100667.00;;;;10491963;28;20225;-80
2021/11/25 14:06:34;;;;;;;32.50;20.40;;;;;8.70;100665.00;;;;10487764;28;20201;-80
2021/11/25 14:11:39;;;;;;;37.10;20.27;;;;;8.70;100660.00;;;;10501971;28;20249;-80
2021/11/25 14:16:51;;;;;;;42.70;20.80;;;;;8.70;100657.00;;;;10502292;28;20254;-80
2021/11/25 14:21:56;;;;;;;32.23;20.13;;;;;8.60;100647.00;;;;10461832;28;20222;-80
2021/11/25 14:32:26;;;;;;;40.40;21.27;;;;;8.40;100638.00;;;;10469398;28;20703;-80
2021/11/25 14:37:32;;;;;;;35.80;20.40;;;;;8.30;100637.00;;;;10536255;28;20200;-80
2021/11/25 14:42:33;;;;;;;33.23;20.40;;;;;8.20;100632.00;;;;10495254;28;20224;-80
2021/11/25 14:47:50;;;;;;;31.30;19.27;;;;;8.20;100639.00;;;;10542435;28;20208;-80
2021/11/25 14:53:04;;;;;;;35.57;21.30;;;;;8.10;100639.00;;;;10485000;28;20234;-80
2021/11/25 14:58:08;;;;;;;49.83;22.83;;;;;8.00;100635.00;;;;10505147;28;20204;-81
2021/11/25 15:03:10;;;;;;;36.33;20.83;;;;;8.00;100644.00;;;;10474173;28;20237;-80
2021/11/25 15:08:20;;;;;;;34.80;20.30;;;;;7.90;100647.00;;;;10494612;27;20198;-81
2021/11/25 15:13:25;;;;;;;32.07;18.80;;;;;7.90;100644.00;;;;10501338;28;20200;-80
2021/11/25 15:18:29;;;;;;;35.00;18.27;;;;;7.80;100641.00;;;;10476566;28;20209;-80
2021/11/25 15:23:34;;;;;;;34.53;18.33;;;;;7.80;100640.00;;;;10498968;28;20220;-80
2021/11/25 15:28:38;;;;;;;29.23;16.03;;;;;7.70;100635.00;;;;10478175;28;20312;-80
2021/11/25 15:33:40;;;;;;;31.97;16.10;;;;;7.70;100641.00;;;;10477895;28;20228;-81
2021/11/25 15:38:42;;;;;;;33.97;14.40;;;;;7.60;100643.00;;;;10476487;28;20273;-80
2021/11/25 15:43:45;;;;;;;21.67;13.17;;;;;7.60;100643.00;;;;10477540;28;20253;-80
2021/11/25 15:48:49;;;;;;;24.40;12.37;;;;;7.50;100631.00;;;;10496183;28;20193;-80
2021/11/25 15:53:51;;;;;;;30.47;12.43;;;;;7.40;100633.00;;;;10516609;28;20201;-80
2021/11/25 15:58:53;;;;;;;28.33;12.47;;;;;7.40;100650.00;;;;10479539;28;21975;-80
2021/11/25 16:03:55;;;;;;;26.70;11.67;;;;;7.30;100638.00;;;;10488957;28;20951;-81
2021/11/25 16:08:58;;;;;;;24.33;11.67;;;;;7.30;100646.00;;;;10490863;28;20258;-80
2021/11/25 16:14:06;;;;;;;23.77;11.70;;;;;7.30;100652.00;;;;10490301;28;20249;-80
2021/11/25 16:19:09;;;;;;;20.47;10.73;;;;;7.30;100651.00;;;;10466181;28;20201;-80
2021/11/25 16:24:11;;;;;;;22.97;10.43;;;;;7.20;100654.00;;;;10458343;28;20201;-80
2021/11/25 16:29:14;;;;;;;21.30;11.10;;;;;7.10;100651.00;;;;10464892;28;20287;-79
2021/11/25 16:34:18;;;;;;;19.70;11.23;;;;;6.90;100652.00;;;;10479490;28;20217;-80
2021/11/25 16:39:20;;;;;;;20.83;10.70;;;;;6.70;100660.00;;;;10478761;28;20207;-79
2021/11/25 16:44:25;;;;;;;21.73;11.43;;;;;6.60;100655.00;;;;10492411;28;20197;-79
2021/11/25 16:49:39;;;;;;;20.00;9.80;;;;;6.50;100651.00;;;;10489959;28;20257;-80
2021/11/25 16:54:41;;;;;;;19.70;9.67;;;;;6.40;100661.00;;;;10514606;28;20566;-80
2021/11/25 16:59:43;;;;;;;21.43;8.93;;;;;6.30;100661.00;;;;10494443;28;20266;-80
2021/11/25 17:04:45;;;;;;;18.77;8.67;;;;;6.30;100662.00;;;;10512450;28;20793;-80
2021/11/25 17:09:47;;;;;;;16.10;7.10;;;;;6.20;100664.00;;;;10493401;28;20205;-80
2021/11/25 17:14:50;;;;;;;19.87;7.10;;;;;6.10;100662.00;;;;10475950;28;20249;-80
2021/11/25 17:19:52;;;;;;;15.30;6.47;;;;;6.10;100670.00;;;;10493932;28;20705;-81
2021/11/25 17:24:54;;;;;;;19.00;5.40;;;;;6.10;100674.00;;;;10522643;28;20239;-80
2021/11/25 17:29:56;;;;;;;18.67;5.00;;;;;6.10;100679.00;;;;10499293;28;20197;-80
2021/11/25 17:34:58;;;;;;;13.40;4.20;;;;;6.00;100660.00;;;;10485334;28;20238;-81
2021/11/25 17:40:00;;;;;;;17.90;3.97;;;;;5.90;100663.00;;;;10491818;28;20255;-80
2021/11/25 17:45:07;;;;;;;10.60;4.03;;;;;5.70;100663.00;;;;10509547;28;20201;-81
2021/11/25 17:50:10;;;;;;;13.83;4.30;;;;;5.60;100657.00;;;;10495807;28;20208;-80
2021/11/25 17:55:12;;;;;;;13.80;4.60;;;;;5.40;100658.00;;;;10495902;28;20197;-80
2021/11/25 18:00:18;;;;;;;12.13;4.10;;;;;5.30;100657.00;;;;10467678;28;20211;-80
2021/11/25 18:05:21;;;;;;;17.73;5.77;;;;;5.20;100655.00;;;;10488139;28;20228;-80
2021/11/25 18:10:23;;;;;;;13.33;4.87;;;;;5.20;100648.00;;;;10492564;27;20205;-81
2021/11/25 18:15:28;;;;;;;16.40;5.43;;;;;5.20;100652.00;;;;10515160;28;20209;-80
2021/11/25 18:20:29;;;;;;;20.97;6.03;;;;;5.10;100654.00;;;;10467163;28;20224;-80
2021/11/25 18:25:32;;;;;;;22.70;5.73;;;;;5.00;100659.00;;;;10486776;28;20208;-80
2021/11/25 18:30:35;;;;;;;12.10;5.57;;;;;5.00;100660.00;;;;10483470;27;20223;-80
2021/11/25 18:35:37;;;;;;;17.17;6.53;;;;;5.00;100668.00;;;;10488970;27;20616;-80
2021/11/25 18:40:40;;;;;;;22.70;6.53;;;;;5.10;100669.00;;;;10491664;28;20706;-81
2021/11/25 18:45:42;;;;;;;19.77;7.10;;;;;5.00;100656.00;;;;10482368;27;20227;-80
2021/11/25 18:50:44;;;;;;;19.93;6.93;;;;;5.00;100659.00;;;;10491701;28;20209;-81
2021/11/25 18:55:47;;;;;;;22.47;6.73;;;;;4.90;100646.00;;;;10492327;27;20246;-80
2021/11/25 19:01:05;;;;;;;19.40;7.00;;;;;4.90;100641.00;;;;10468790;28;20587;-80
2021/11/25 19:06:09;;;;;;;12.83;5.80;;;;;4.90;100632.00;;;;10476151;28;20736;-81
2021/11/25 19:11:12;;;;;;;15.27;6.53;;;;;4.90;100627.00;;;;10491045;28;20288;-80
2021/11/25 19:16:16;;;;;;;15.63;6.43;;;;;4.90;100634.00;;;;10477013;28;20284;-80
2021/11/25 19:21:20;;;;;;;14.53;6.20;;;;;4.90;100630.00;;;;10493323;28;20320;-80
2021/11/25 19:26:25;;;;;;;23.93;7.27;;;;;4.90;100621.00;;;;10472267;28;20224;-80
2021/11/25 19:31:27;;;;;;;20.77;6.93;;;;;4.80;100614.00;;;;10461725;28;20217;-80
2021/11/25 19:36:29;;;;;;;16.60;6.10;;;;;4.80;100623.00;;;;10460092;28;21558;-80
2021/11/25 19:41:31;;;;;;;19.47;6.47;;;;;4.80;100623.00;;;;10473841;28;20224;-80
2021/11/25 19:46:36;;;;;;;15.70;6.30;;;;;4.70;100628.00;;;;10455354;28;20203;-80
2021/11/25 19:51:38;;;;;;;12.17;5.87;;;;;4.70;100623.00;;;;10455380;28;20211;-80
2021/11/25 19:56:40;;;;;;;16.00;6.10;;;;;4.70;100603.00;;;;10466392;28;20277;-80
2021/11/25 20:01:43;;;;;;;16.47;6.70;;;;;4.70;100606.00;;;;10459260;28;20217;-80
2021/11/25 20:06:46;;;;;;;24.73;8.13;;;;;4.80;100615.00;;;;10450354;28;20204;-80
2021/11/25 20:11:50;;;;;;;20.70;7.27;;;;;4.70;100610.00;;;;10478559;28;20239;-81
2021/11/25 20:16:52;;;;;;;18.27;7.60;;;;;4.70;100598.00;;;;10495188;28;20284;-80
2021/11/25 20:21:56;;;;;;;23.17;8.67;;;;;4.70;100594.00;;;;10486562;28;20223;-80
2021/11/25 20:26:58;;;;;;;25.30;9.20;;;;;4.70;100594.00;;;;10498145;28;20211;-81
2021/11/25 20:32:00;;;;;;;29.17;10.33;;;;;4.90;100582.00;;;;10522345;28;20224;-80
2021/11/25 20:37:02;;;;;;;22.80;8.93;;;;;4.90;100602.00;;;;10475789;28;20201;-81
2021/11/25 20:42:04;;;;;;;31.53;10.30;;;;;4.90;100578.00;;;;10500864;28;20235;-80
2021/11/25 20:47:07;;;;;;;32.67;9.43;;;;;4.70;100573.00;;;;10504493;28;20200;-81
2021/11/25 20:52:09;;;;;;;25.40;8.77;;;;;4.60;100588.00;;;;10488723;28;20225;-81
2021/11/25 20:57:12;;;;;;;36.80;10.00;;;;;4.50;100573.00;;;;10471254;28;20197;-81
2021/11/25 21:02:16;;;;;;;29.10;8.50;;;;;4.40;100581.00;;;;10490927;28;20224;-80
2021/11/25 21:07:19;;;;;;;19.37;8.23;;;;;4.30;100570.00;;;;10508486;28;20200;-81
2021/11/25 21:12:21;;;;;;;29.60;8.60;;;;;4.20;100569.00;;;;10481187;28;20201;-81
2021/11/25 21:17:23;;;;;;;23.83;8.27;;;;;4.20;100575.00;;;;10448772;28;20196;-82
2021/11/25 21:22:27;;;;;;;24.17;8.20;;;;;4.10;100570.00;;;;10469823;28;20266;-81
2021/11/25 21:27:35;;;;;;;22.27;7.83;;;;;4.00;100566.00;;;;10492459;28;20266;-81
2021/11/25 21:32:38;;;;;;;21.13;7.67;;;;;3.90;100556.00;;;;10483253;28;20255;-81
2021/11/25 21:37:40;;;;;;;27.67;7.47;;;;;3.90;100544.00;;;;10464073;28;20300;-81
2021/11/25 21:42:47;;;;;;;21.97;7.03;;;;;3.90;100537.00;;;;10491849;28;20223;-81
2021/11/25 21:47:51;;;;;;;26.87;7.27;;;;;4.00;100521.00;;;;10475742;28;20355;-81
2021/11/25 21:52:56;;;;;;;22.50;6.17;;;;;4.10;100524.00;;;;10509474;28;20243;-81
2021/11/25 21:57:59;;;;;;;14.63;5.77;;;;;4.10;100511.00;;;;10463646;28;20292;-82
2021/11/25 22:03:01;;;;;;;18.97;5.17;;;;;4.10;100507.00;;;;10492977;28;20223;-81
2021/11/25 22:08:03;;;;;;;16.07;9.07;;;;;4.30;100514.00;;;;10479892;28;20686;-81
2021/11/25 22:13:06;;;;;;;16.50;6.37;;;;;4.50;100503.00;;;;10509319;28;20201;-81
2021/11/25 22:18:13;;;;;;;15.43;5.87;;;;;4.50;100498.00;;;;10507391;28;20250;-81
2021/11/25 22:28:36;;;;;;;14.13;5.57;;;;;4.50;100478.00;;;;10505037;28;20254;-81
2021/11/25 22:33:37;;;;;;;7.67;4.10;;;;;4.60;100480.00;;;;10497605;28;20229;-82
2021/11/25 22:38:39;;;;;;;12.13;5.43;;;;;4.70;100477.00;;;;10468617;28;20212;-82
2021/11/25 22:43:41;;;;;;;15.70;5.03;;;;;4.70;100461.00;;;;10452475;28;20217;-82
2021/11/25 22:48:43;;;;;;;8.93;3.80;;;;;4.70;100447.00;;;;10468592;28;20220;-82
2021/11/25 22:53:45;;;;;;;11.60;4.50;;;;;4.70;100452.00;;;;10477784;28;20193;-82
2021/11/25 22:58:47;;;;;;;18.33;4.83;;;;;4.70;100458.00;;;;10522395;28;20213;-82
2021/11/25 23:03:49;;;;;;;12.20;3.67;;;;;4.60;100446.00;;;;10483064;28;20293;-82
2021/11/25 23:08:51;;;;;;;9.20;3.43;;;;;4.60;100434.00;;;;10471059;28;20266;-82
2021/11/25 23:13:53;;;;;;;9.53;3.40;;;;;4.60;100443.00;;;;10451415;28;20192;-82
2021/11/25 23:18:55;;;;;;;14.27;4.10;;;;;4.70;100449.00;;;;10485649;28;20205;-82
2021/11/25 23:23:57;;;;;;;14.97;3.70;;;;;4.70;100448.00;;;;10488980;28;20225;-82
2021/11/25 23:29:00;;;;;;;10.43;3.77;;;;;4.70;100436.00;;;;10472449;28;20204;-82
2021/11/25 23:34:03;;;;;;;9.23;3.77;;;;;4.70;100425.00;;;;10503716;28;20221;-82
2021/11/25 23:39:05;;;;;;;6.83;3.80;;;;;4.70;100417.00;;;;10487474;28;20201;-82
2021/11/25 23:44:10;;;;;;;10.73;3.73;;;;;4.70;100408.00;;;;10509203;28;20648;-82
2021/11/25 23:49:17;;;;;;;8.17;3.53;;;;;4.70;100401.00;;;;10455548;28;20867;-82
2021/11/25 23:54:20;;;;;;;10.07;3.77;;;;;4.70;100398.00;;;;10481903;28;20657;-82
2021/11/25 23:59:22;;;;;;;11.33;3.57;;;;;4.80;100397.00;;;;10467584;28;20201;-82
